createdAt,value
2022-11-20T00:01:19.474Z,59.13
2022-11-20T00:03:46.645Z,68.77
2022-11-20T00:06:16.160Z,65.43
2022-11-20T00:08:43.415Z,33.03
2022-11-20T00:11:16.701Z,58.22
2022-11-20T00:13:45.235Z,57.50
2022-11-20T00:16:13.897Z,67.07
2022-11-20T00:18:41.003Z,63.65
2022-11-20T00:21:19.189Z,61.70
2022-11-20T00:23:46.159Z,54.25
2022-11-20T00:26:16.156Z,54.00
2022-11-20T00:28:45.308Z,61.50
2022-11-20T00:31:16.262Z,61.13
2022-11-20T00:33:44.717Z,55.88
2022-11-20T00:36:14.449Z,60.13
2022-11-20T00:38:41.280Z,59.58
2022-11-20T00:41:10.783Z,57.77
2022-11-20T00:43:38.514Z,52.83
2022-11-20T00:46:08.331Z,55.03
2022-11-20T00:48:35.571Z,57.72
2022-11-20T00:51:02.617Z,57.75
2022-11-20T00:53:29.543Z,53.97
2022-11-20T00:56:02.770Z,51.40
2022-11-20T00:58:32.114Z,57.17
2022-11-20T01:01:07.392Z,55.05
2022-11-20T01:03:39.661Z,55.65
2022-11-20T01:06:15.881Z,58.43
2022-11-20T01:08:43.030Z,56.50
2022-11-20T01:11:15.577Z,58.80
2022-11-20T01:13:43.455Z,53.85
2022-11-20T01:16:24.213Z,54.50
2022-11-20T01:18:54.727Z,50.23
2022-11-20T01:21:27.393Z,55.65
2022-11-20T01:23:54.439Z,55.25
2022-11-20T01:26:26.856Z,54.78
2022-11-20T01:28:54.579Z,54.88
2022-11-20T01:31:22.489Z,59.27
2022-11-20T01:33:51.514Z,53.95
2022-11-20T01:36:20.068Z,57.65
2022-11-20T01:38:47.098Z,54.50
2022-11-20T01:41:35.907Z,51.95
2022-11-20T01:44:04.381Z,55.90
2022-11-20T01:46:33.571Z,56.30
2022-11-20T01:49:21.178Z,59.28
2022-11-20T01:51:51.126Z,55.40
2022-11-20T01:54:26.835Z,56.75
2022-11-20T01:56:57.643Z,58.53
2022-11-20T01:59:26.979Z,58.92
2022-11-20T02:01:54.394Z,57.35
2022-11-20T02:04:21.810Z,60.15
2022-11-20T02:07:06.059Z,51.70
2022-11-20T02:09:32.930Z,56.43
2022-11-20T02:12:00.386Z,56.13
2022-11-20T02:14:27.457Z,52.83
2022-11-20T02:16:55.836Z,52.75
2022-11-20T02:19:30.805Z,56.65
2022-11-20T02:22:06.756Z,54.37
2022-11-20T02:24:33.641Z,57.45
2022-11-20T02:27:05.667Z,51.97
2022-11-20T02:29:38.402Z,49.38
2022-11-20T02:32:05.226Z,57.53
2022-11-20T02:34:32.728Z,56.13
2022-11-20T02:37:00.638Z,55.45
2022-11-20T02:39:29.342Z,60.55
2022-11-20T02:41:57.527Z,56.97
2022-11-20T02:44:24.298Z,53.15
2022-11-20T02:46:51.116Z,54.27
2022-11-20T02:49:18.145Z,58.92
2022-11-20T02:51:45.347Z,56.88
2022-11-20T02:54:12.076Z,57.45
2022-11-20T02:56:39.971Z,56.00
2022-11-20T02:59:07.079Z,60.07
2022-11-20T03:01:33.967Z,50.47
2022-11-20T03:04:00.683Z,54.88
2022-11-20T03:06:27.382Z,56.50
2022-11-20T03:08:54.296Z,61.38
2022-11-20T03:11:21.160Z,61.90
2022-11-20T03:13:47.921Z,53.55
2022-11-20T03:16:18.051Z,59.20
2022-11-20T03:18:45.351Z,63.28
2022-11-20T03:21:13.310Z,60.30
2022-11-20T03:23:40.618Z,60.30
2022-11-20T03:26:16.459Z,66.03
2022-11-20T03:28:49.763Z,53.10
2022-11-20T03:31:17.478Z,56.20
2022-11-20T03:33:44.767Z,59.85
2022-11-20T03:36:14.174Z,58.73
2022-11-20T03:38:41.492Z,57.50
2022-11-20T03:41:10.492Z,55.17
2022-11-20T03:43:37.791Z,57.70
2022-11-20T03:46:05.135Z,56.33
2022-11-20T03:48:31.996Z,53.07
2022-11-20T03:51:08.631Z,55.38
2022-11-20T03:53:35.714Z,57.15
2022-11-20T03:56:02.459Z,52.95
2022-11-20T03:58:29.216Z,51.00
2022-11-20T04:00:55.919Z,53.20
2022-11-20T04:03:22.751Z,58.38
2022-11-20T04:05:49.499Z,59.28
2022-11-20T04:08:16.310Z,53.28
2022-11-20T04:10:43.104Z,47.03
2022-11-20T04:13:09.813Z,52.43
2022-11-20T04:15:38.548Z,45.78
2022-11-20T04:18:05.518Z,47.95
2022-11-20T04:20:32.304Z,49.03
2022-11-20T04:22:59.048Z,46.28
2022-11-20T04:25:25.778Z,48.00
2022-11-20T04:27:52.547Z,54.03
2022-11-20T04:30:19.307Z,50.42
2022-11-20T04:32:45.979Z,54.60
2022-11-20T04:35:12.732Z,48.30
2022-11-20T04:37:39.482Z,48.17
2022-11-20T04:40:06.635Z,50.08
2022-11-20T04:42:33.425Z,52.28
2022-11-20T04:45:00.147Z,47.90
2022-11-20T04:47:26.827Z,50.28
2022-11-20T04:49:53.678Z,42.83
2022-11-20T04:52:20.454Z,50.67
2022-11-20T04:54:47.218Z,53.13
2022-11-20T04:57:14.880Z,55.22
2022-11-20T04:59:41.716Z,50.80
2022-11-20T05:02:08.707Z,45.87
2022-11-20T05:04:35.484Z,49.80
2022-11-20T05:07:02.307Z,48.88
2022-11-20T05:09:29.135Z,48.33
2022-11-20T05:11:55.908Z,43.45
2022-11-20T05:14:22.619Z,46.17
2022-11-20T05:16:49.521Z,52.72
2022-11-20T05:19:16.202Z,48.30
2022-11-20T05:21:42.952Z,39.72
2022-11-20T05:24:09.751Z,47.35
2022-11-20T05:26:36.521Z,50.10
2022-11-20T05:29:03.433Z,52.22
2022-11-20T05:31:30.103Z,49.85
2022-11-20T05:33:58.020Z,45.95
2022-11-20T05:36:25.492Z,48.53
2022-11-20T05:38:55.469Z,51.20
2022-11-20T05:41:25.601Z,48.53
2022-11-20T05:43:52.698Z,51.45
2022-11-20T05:46:26.706Z,47.42
2022-11-20T05:48:55.795Z,52.90
2022-11-20T05:51:24.499Z,46.27
2022-11-20T05:53:51.291Z,49.65
2022-11-20T05:56:20.581Z,44.95
2022-11-20T05:58:48.115Z,51.35
2022-11-20T06:01:23.545Z,54.35
2022-11-20T06:03:51.770Z,44.83
2022-11-20T06:06:19.883Z,44.35
2022-11-20T06:08:46.995Z,49.90
2022-11-20T06:11:15.252Z,48.70
2022-11-20T06:13:42.737Z,45.03
2022-11-20T06:16:11.114Z,53.90
2022-11-20T06:18:38.002Z,55.53
2022-11-20T06:21:08.855Z,47.67
2022-11-20T06:23:36.892Z,45.38
2022-11-20T06:26:05.622Z,47.42
2022-11-20T06:28:32.666Z,49.20
2022-11-20T06:30:59.834Z,50.35
2022-11-20T06:33:26.884Z,51.55
2022-11-20T06:35:59.551Z,50.15
2022-11-20T06:38:28.400Z,51.90
2022-11-20T06:40:55.449Z,49.67
2022-11-20T06:43:23.649Z,50.55
2022-11-20T06:45:55.239Z,51.40
2022-11-20T06:48:23.303Z,46.83
2022-11-20T06:50:50.127Z,46.05
2022-11-20T06:53:16.852Z,54.50
2022-11-20T06:55:48.063Z,50.20
2022-11-20T06:58:16.168Z,42.63
2022-11-20T07:00:43.310Z,44.38
2022-11-20T07:03:12.104Z,60.45
2022-11-20T07:05:39.560Z,49.73
2022-11-20T07:08:06.610Z,53.33
2022-11-20T07:10:34.058Z,49.55
2022-11-20T07:13:00.837Z,46.42
2022-11-20T07:15:27.543Z,48.75
2022-11-20T07:17:54.315Z,44.93
2022-11-20T07:20:21.087Z,46.13
2022-11-20T07:22:47.887Z,44.35
2022-11-20T07:25:14.743Z,51.13
2022-11-20T07:27:41.471Z,51.45
2022-11-20T07:30:08.536Z,47.47
2022-11-20T07:32:35.311Z,58.50
2022-11-20T07:35:02.040Z,65.75
2022-11-20T07:37:28.886Z,64.15
2022-11-20T07:39:55.635Z,68.03
2022-11-20T07:42:22.368Z,66.93
2022-11-20T07:44:51.478Z,59.42
2022-11-20T07:47:18.180Z,51.92
2022-11-20T07:49:44.888Z,47.78
2022-11-20T07:52:11.602Z,50.72
2022-11-20T07:54:38.703Z,45.03
2022-11-20T07:57:05.503Z,47.95
2022-11-20T07:59:32.207Z,45.83
2022-11-20T08:01:58.867Z,57.75
2022-11-20T08:04:25.657Z,71.45
2022-11-20T08:06:55.361Z,56.37
2022-11-20T08:09:22.237Z,50.80
2022-11-20T08:12:07.470Z,46.53
2022-11-20T08:14:34.156Z,43.45
2022-11-20T08:17:01.000Z,48.35
2022-11-20T08:19:27.823Z,52.60
2022-11-20T08:21:54.575Z,43.78
2022-11-20T08:24:21.318Z,40.28
2022-11-20T08:26:48.046Z,43.33
2022-11-20T08:29:14.789Z,38.15
2022-11-20T08:31:41.558Z,37.93
2022-11-20T08:34:09.845Z,37.50
2022-11-20T08:36:37.514Z,32.10
2022-11-20T08:39:04.671Z,29.15
2022-11-20T08:41:34.607Z,31.23
2022-11-20T08:44:05.562Z,32.33
2022-11-20T08:46:40.370Z,32.67
2022-11-20T08:49:09.637Z,37.85
2022-11-20T08:51:37.055Z,32.05
2022-11-20T08:54:04.931Z,37.00
2022-11-20T08:56:32.287Z,32.33
2022-11-20T09:01:47.450Z,30.80
2022-11-20T09:04:15.400Z,30.42
2022-11-20T09:06:42.456Z,33.70
2022-11-20T09:09:09.151Z,28.57
2022-11-20T09:11:37.093Z,32.03
2022-11-20T09:14:05.485Z,32.20
2022-11-20T09:16:32.205Z,36.50
2022-11-20T09:19:20.612Z,38.42
2022-11-20T09:21:45.645Z,38.77
2022-11-20T09:24:12.453Z,40.42
2022-11-20T09:26:39.157Z,40.63
2022-11-20T09:29:05.891Z,42.10
2022-11-20T09:31:32.908Z,45.17
2022-11-20T09:33:59.721Z,44.43
2022-11-20T09:36:27.363Z,41.65
2022-11-20T09:38:54.861Z,40.72
2022-11-20T09:41:52.576Z,40.17
2022-11-20T09:44:25.076Z,45.58
2022-11-20T09:47:07.810Z,43.43
2022-11-20T09:49:37.316Z,38.95
2022-11-20T09:52:22.261Z,39.72
2022-11-20T09:54:50.820Z,37.60
2022-11-20T09:57:21.390Z,41.38
2022-11-20T09:59:52.106Z,40.87
2022-11-20T10:02:25.112Z,44.33
2022-11-20T10:05:28.243Z,47.65
2022-11-20T10:08:17.533Z,47.80
2022-11-20T10:10:57.712Z,45.10
2022-11-20T10:13:50.330Z,45.73
2022-11-20T10:16:48.176Z,40.42
2022-11-20T10:20:03.592Z,40.20
2022-11-20T10:22:48.356Z,45.80
2022-11-20T10:25:21.403Z,40.80
2022-11-20T10:28:14.504Z,41.47
2022-11-20T10:30:46.693Z,36.08
2022-11-20T10:33:23.397Z,46.47
2022-11-20T10:36:07.174Z,42.15
2022-11-20T10:38:42.079Z,40.58
2022-11-20T10:41:27.229Z,39.77
2022-11-20T10:44:10.734Z,42.67
2022-11-20T10:46:44.982Z,43.45
2022-11-20T10:49:17.504Z,42.80
2022-11-20T10:52:06.801Z,43.13
2022-11-20T10:54:52.351Z,39.53
2022-11-20T10:57:44.938Z,39.78
2022-11-20T11:00:14.548Z,40.40
2022-11-20T11:02:55.941Z,32.05
2022-11-20T11:05:49.240Z,29.85
2022-11-20T11:08:18.614Z,22.37
2022-11-20T11:10:51.542Z,18.27
2022-11-20T11:13:29.656Z,21.08
2022-11-20T11:15:56.810Z,14.88
2022-11-20T11:18:35.398Z,18.20
2022-11-20T11:21:05.220Z,37.67
2022-11-20T11:23:40.894Z,31.35
2022-11-20T11:26:28.272Z,42.08
2022-11-20T11:29:04.241Z,28.88
2022-11-20T11:31:33.593Z,35.30
2022-11-20T11:34:29.466Z,35.53
2022-11-20T11:37:01.687Z,28.42
2022-11-20T11:39:30.397Z,29.23
2022-11-20T11:41:58.731Z,25.90
2022-11-20T11:44:48.296Z,31.20
2022-11-20T11:47:24.034Z,24.17
2022-11-20T11:50:01.409Z,17.60
2022-11-20T11:52:29.911Z,15.90
2022-11-20T11:55:00.662Z,16.13
2022-11-20T11:57:53.648Z,17.17
2022-11-20T12:00:22.594Z,15.83
2022-11-20T12:03:06.389Z,17.08
2022-11-20T12:05:44.055Z,22.75
2022-11-20T12:08:26.382Z,23.92
2022-11-20T12:10:53.082Z,21.52
2022-11-20T12:13:29.194Z,24.63
2022-11-20T12:15:56.021Z,21.83
2022-11-20T12:18:24.030Z,24.17
2022-11-20T12:21:24.574Z,26.88
2022-11-20T12:24:06.235Z,30.50
2022-11-20T12:26:49.089Z,23.03
2022-11-20T12:29:18.812Z,22.25
2022-11-20T12:32:04.100Z,22.88
2022-11-20T12:34:39.763Z,23.63
2022-11-20T12:37:19.440Z,20.58
2022-11-20T12:39:53.478Z,22.03
2022-11-20T12:42:44.701Z,21.08
2022-11-20T12:45:33.761Z,21.77
2022-11-20T12:48:24.541Z,19.88
2022-11-20T12:51:22.398Z,22.75
2022-11-20T12:54:26.130Z,20.77
2022-11-20T12:57:06.885Z,20.08
2022-11-20T12:59:55.256Z,16.95
2022-11-20T13:02:47.907Z,18.33
2022-11-20T13:05:20.363Z,15.85
2022-11-20T13:07:48.670Z,15.57
2022-11-20T13:10:32.561Z,14.93
2022-11-20T13:13:42.567Z,17.40
2022-11-20T13:16:16.987Z,16.52
2022-11-20T13:18:46.161Z,15.15
2022-11-20T13:21:17.971Z,23.30
2022-11-20T13:23:44.719Z,19.65
2022-11-20T13:26:29.563Z,19.60
2022-11-20T13:29:19.188Z,20.30
2022-11-20T13:31:48.182Z,21.58
2022-11-20T13:34:25.551Z,21.07
2022-11-20T13:36:55.530Z,22.80
2022-11-20T13:39:30.335Z,21.00
2022-11-20T13:41:59.591Z,19.73
2022-11-20T13:44:51.705Z,20.58
2022-11-20T13:47:27.022Z,20.07
2022-11-20T13:49:55.915Z,21.92
2022-11-20T13:52:52.351Z,21.25
2022-11-20T13:55:38.902Z,24.33
2022-11-20T13:58:08.215Z,24.83
2022-11-20T14:00:51.344Z,22.57
2022-11-20T14:03:51.322Z,21.85
2022-11-20T14:06:28.208Z,31.35
2022-11-20T14:08:56.013Z,23.45
2022-11-20T14:11:25.841Z,24.40
2022-11-20T14:14:01.219Z,23.90
2022-11-20T14:16:31.047Z,23.23
2022-11-20T14:18:58.975Z,25.30
2022-11-20T14:21:30.594Z,22.30
2022-11-20T14:24:07.282Z,26.77
2022-11-20T14:26:34.961Z,24.17
2022-11-20T14:29:02.176Z,24.77
2022-11-20T14:31:29.286Z,27.98
2022-11-20T14:33:56.745Z,24.13
2022-11-20T14:36:26.203Z,22.40
2022-11-20T14:38:54.501Z,23.03
2022-11-20T14:41:24.256Z,27.63
2022-11-20T14:44:01.367Z,23.15
2022-11-20T14:46:28.897Z,20.83
2022-11-20T14:48:57.847Z,23.27
2022-11-20T14:51:42.532Z,20.93
2022-11-20T14:54:15.115Z,21.10
2022-11-20T14:56:42.032Z,21.58
2022-11-20T14:59:10.070Z,19.40
2022-11-20T15:01:36.953Z,23.58
2022-11-20T15:04:10.289Z,46.83
2022-11-20T15:06:38.500Z,25.58
2022-11-20T15:09:14.120Z,28.60
2022-11-20T15:12:01.259Z,27.50
2022-11-20T15:14:29.920Z,28.10
2022-11-20T15:16:57.279Z,32.30
2022-11-20T15:19:25.957Z,37.65
2022-11-20T15:21:52.747Z,34.58
2022-11-20T15:24:20.447Z,32.80
2022-11-20T15:26:47.394Z,31.80
2022-11-20T15:29:19.685Z,31.17
2022-11-20T15:31:46.603Z,31.30
2022-11-20T15:34:15.347Z,23.48
2022-11-20T15:36:43.192Z,25.25
2022-11-20T15:39:10.481Z,26.20
2022-11-20T15:41:38.188Z,28.10
2022-11-20T15:44:05.874Z,21.20
2022-11-20T15:46:39.376Z,21.75
2022-11-20T15:49:07.534Z,20.77
2022-11-20T15:51:38.463Z,22.92
2022-11-20T15:54:21.436Z,21.47
2022-11-20T15:56:49.780Z,18.02
2022-11-20T15:59:16.705Z,12.05
2022-11-20T16:01:44.038Z,11.23
2022-11-20T16:04:16.040Z,8.07
2022-11-20T16:06:42.830Z,8.80
2022-11-20T16:09:10.332Z,9.43
2022-11-20T16:11:37.627Z,9.00
2022-11-20T16:14:24.459Z,8.93
2022-11-20T16:16:52.170Z,9.55
2022-11-20T16:19:19.145Z,9.37
2022-11-20T16:21:45.928Z,12.52
2022-11-20T16:24:14.758Z,19.17
2022-11-20T16:26:42.379Z,19.48
2022-11-20T16:29:09.378Z,24.75
2022-11-20T16:31:36.282Z,21.87
2022-11-20T16:34:12.044Z,15.85
2022-11-20T16:36:43.459Z,11.60
2022-11-20T16:39:10.866Z,12.27
2022-11-20T16:41:37.964Z,11.70
2022-11-20T16:44:10.093Z,7.47
2022-11-20T16:46:36.918Z,4.97
2022-11-20T16:49:12.027Z,5.82
2022-11-20T16:51:38.734Z,3.95
2022-11-20T16:54:07.466Z,4.50
2022-11-20T16:56:34.227Z,3.97
2022-11-20T16:59:02.543Z,4.03
2022-11-20T17:01:30.358Z,7.13
2022-11-20T17:04:05.152Z,4.22
2022-11-20T17:06:34.439Z,3.42
2022-11-20T17:09:01.740Z,2.63
2022-11-20T17:11:29.582Z,3.28
2022-11-20T17:14:00.549Z,3.10
2022-11-20T17:16:28.351Z,4.38
2022-11-20T17:19:02.298Z,3.33
2022-11-20T17:21:30.063Z,3.03
2022-11-20T17:24:02.722Z,2.50
2022-11-20T17:26:30.900Z,2.65
2022-11-20T17:29:00.002Z,2.33
2022-11-20T17:31:28.591Z,2.58
2022-11-20T17:33:56.010Z,3.20
2022-11-20T17:36:23.252Z,3.17
2022-11-20T17:38:50.268Z,3.53
2022-11-20T17:41:20.031Z,3.78
2022-11-20T17:43:47.152Z,3.97
2022-11-20T17:46:20.146Z,3.90
2022-11-20T17:48:48.476Z,3.45
2022-11-20T17:51:21.771Z,4.45
2022-11-20T17:53:54.863Z,3.83
2022-11-20T17:56:40.289Z,4.72
2022-11-20T17:59:09.494Z,3.40
2022-11-20T18:01:36.658Z,2.33
2022-11-20T18:04:04.209Z,3.22
2022-11-20T18:06:31.682Z,3.28
2022-11-20T18:08:59.972Z,4.07
2022-11-20T18:11:29.363Z,2.30
2022-11-20T18:14:17.838Z,3.50
2022-11-20T18:16:52.652Z,3.35
2022-11-20T18:19:32.768Z,4.20
2022-11-20T18:22:01.767Z,9.93
2022-11-20T18:24:29.136Z,7.13
2022-11-20T18:26:57.750Z,11.63
2022-11-20T18:29:25.318Z,6.65
2022-11-20T18:31:52.808Z,4.18
2022-11-20T18:34:19.598Z,3.45
2022-11-20T18:36:46.362Z,3.03
2022-11-20T18:39:14.666Z,3.10
2022-11-20T18:42:00.631Z,2.70
2022-11-20T18:44:48.409Z,3.22
2022-11-20T18:47:17.114Z,3.88
2022-11-20T18:49:51.302Z,3.23
2022-11-20T18:52:23.412Z,3.05
2022-11-20T18:54:51.182Z,2.45
2022-11-20T18:57:20.411Z,3.13
2022-11-20T18:59:47.286Z,5.20
2022-11-20T19:02:16.464Z,2.90
2022-11-20T19:04:43.573Z,3.10
2022-11-20T19:07:14.133Z,3.85
2022-11-20T19:09:42.802Z,5.10
2022-11-20T19:12:11.491Z,4.20
2022-11-20T19:14:38.306Z,5.10
2022-11-20T19:17:06.991Z,3.55
2022-11-20T19:19:35.103Z,2.50
2022-11-20T19:22:01.866Z,4.13
2022-11-20T19:24:28.934Z,3.15
2022-11-20T19:26:56.285Z,3.47
2022-11-20T19:29:25.168Z,3.20
2022-11-20T19:31:52.625Z,4.03
2022-11-20T19:34:19.519Z,4.57
2022-11-20T19:36:46.727Z,2.97
2022-11-20T19:39:14.041Z,4.40
2022-11-20T19:41:41.776Z,4.30
2022-11-20T19:44:12.518Z,3.92
2022-11-20T19:46:40.267Z,3.40
2022-11-20T19:49:10.260Z,3.15
2022-11-20T19:51:38.820Z,3.20
2022-11-20T19:54:06.294Z,4.90
2022-11-20T19:56:34.157Z,2.42
2022-11-20T19:59:01.786Z,2.88
2022-11-20T20:01:30.768Z,3.45
2022-11-20T20:04:02.586Z,3.03
2022-11-20T20:06:30.107Z,2.97
2022-11-20T20:09:00.870Z,2.90
2022-11-20T20:11:29.931Z,3.33
2022-11-20T20:13:59.013Z,6.43
2022-11-20T20:16:26.520Z,8.30
2022-11-20T20:19:04.319Z,6.75
2022-11-20T20:21:32.432Z,3.85
2022-11-20T20:23:59.712Z,4.10
2022-11-20T20:26:29.727Z,3.28
2022-11-20T20:28:57.382Z,3.30
2022-11-20T20:31:27.089Z,4.63
2022-11-20T20:33:54.055Z,4.70
2022-11-20T20:36:22.616Z,5.78
2022-11-20T20:38:53.320Z,5.20
2022-11-20T20:41:21.715Z,8.33
2022-11-20T20:44:07.306Z,8.27
2022-11-20T20:46:34.130Z,5.53
2022-11-20T20:49:00.996Z,18.80
2022-11-20T20:51:29.180Z,5.80
2022-11-20T20:53:55.933Z,25.63
2022-11-20T20:56:22.947Z,22.75
2022-11-20T20:58:49.773Z,22.90
2022-11-20T21:01:18.318Z,37.85
2022-11-20T21:03:45.615Z,32.78
2022-11-20T21:06:13.540Z,27.70
2022-11-20T21:08:43.544Z,16.17
2022-11-20T21:11:13.428Z,7.53
2022-11-20T21:13:42.823Z,6.13
2022-11-20T21:16:10.424Z,4.95
2022-11-20T21:18:37.245Z,13.73
2022-11-20T21:21:26.910Z,8.32
2022-11-20T21:23:53.858Z,7.20
2022-11-20T21:26:20.865Z,7.72
2022-11-20T21:28:47.923Z,8.80
2022-11-20T21:31:17.369Z,9.90
2022-11-20T21:33:48.872Z,10.30
2022-11-20T21:36:18.287Z,10.80
2022-11-20T21:38:46.020Z,14.13
2022-11-20T21:41:14.070Z,11.20
2022-11-20T21:43:42.696Z,10.83
2022-11-20T21:46:12.089Z,16.13
2022-11-20T21:48:40.806Z,27.88
2022-11-20T21:51:19.032Z,21.40
2022-11-20T21:53:47.052Z,22.40
2022-11-20T21:56:20.373Z,23.17
2022-11-20T21:58:48.450Z,14.55
2022-11-20T22:01:20.511Z,7.57
2022-11-20T22:03:49.506Z,7.13
2022-11-20T22:06:17.001Z,8.40
2022-11-20T22:08:43.859Z,7.90
2022-11-20T22:11:13.968Z,8.43
2022-11-20T22:13:59.830Z,11.23
2022-11-20T22:16:26.941Z,14.90
2022-11-20T22:18:55.746Z,20.05
2022-11-20T22:21:24.695Z,14.70
2022-11-20T22:23:52.356Z,17.95
2022-11-20T22:26:24.588Z,17.25
2022-11-20T22:28:53.764Z,13.18
2022-11-20T22:31:22.643Z,10.93
2022-11-20T22:33:49.782Z,8.17
2022-11-20T22:36:18.006Z,9.52
2022-11-20T22:38:44.900Z,10.82
2022-11-20T22:41:19.854Z,13.93
2022-11-20T22:43:47.024Z,6.03
2022-11-20T22:46:18.612Z,6.60
2022-11-20T22:48:56.350Z,6.65
2022-11-20T22:51:28.919Z,8.65
2022-11-20T22:53:55.809Z,7.30
2022-11-20T22:56:23.172Z,7.97
2022-11-20T22:58:51.983Z,7.93
2022-11-20T23:01:19.947Z,5.82
2022-11-20T23:03:49.198Z,6.25
2022-11-20T23:06:18.561Z,3.15
2022-11-20T23:08:45.752Z,6.05
2022-11-20T23:11:20.666Z,6.07
2022-11-20T23:13:48.113Z,3.70
2022-11-20T23:16:17.316Z,4.03
2022-11-20T23:18:45.263Z,4.90
2022-11-20T23:21:17.527Z,5.60
2022-11-20T23:23:48.968Z,4.63
2022-11-20T23:26:17.386Z,4.47
2022-11-20T23:28:44.788Z,3.92
2022-11-20T23:31:12.890Z,4.10
2022-11-20T23:33:40.880Z,3.42
2022-11-20T23:36:08.171Z,2.90
2022-11-20T23:38:35.143Z,3.08
2022-11-20T23:41:02.629Z,3.60
2022-11-20T23:43:29.630Z,2.22
2022-11-20T23:45:58.444Z,3.38
2022-11-20T23:48:28.843Z,3.20
2022-11-20T23:50:55.938Z,2.40
2022-11-20T23:53:23.521Z,3.13
2022-11-20T23:55:52.903Z,3.45
2022-11-20T23:58:20.639Z,3.97
